AAL1205 KMCO-KLAX
Flight info
| Callsign | AAL1205 |
|---|---|
| Flight time | N/A |
| Altitude | 34000 |
| Route | OSPRY1 REMIS Y280 LEV SAT ELP DMN PXR GABBL HLYWD1 |
| Aircraft | A321/M-SDE3FGHIRWY/LB1 |
Departure
| Time | 2026-05-07 23:30 |
|---|---|
| Airport | Orlando International Airport (KMCO) |
Arrival
| Time | N/A |
|---|---|
| Airport | Los Angeles International Airport (KLAX) |
| Time | Latitude | Longitude | Altitude | Speed | Heading |
|---|---|---|---|---|---|
| 2026-05-07 22:57 | 28.42877 | -81.31499 | 101 ft | 0 kts | 214° |
| 2026-05-07 23:15 | 28.42882 | -81.31495 | 101 ft | 3 kts | 214° |
| 2026-05-07 23:15 | 28.42900 | -81.31473 | 99 ft | 3 kts | 252° |
| 2026-05-07 23:15 | 28.42903 | -81.31451 | 100 ft | 3 kts | 283° |
| 2026-05-07 23:16 | 28.42896 | -81.31431 | 101 ft | 3 kts | 297° |
| 2026-05-07 23:16 | 28.42894 | -81.31425 | 100 ft | 0 kts | 297° |
| 2026-05-07 23:19 | 28.42904 | -81.31447 | 100 ft | 7 kts | 301° |
| 2026-05-07 23:19 | 28.42933 | -81.31507 | 101 ft | 9 kts | 292° |
| 2026-05-07 23:20 | 28.42949 | -81.31576 | 101 ft | 9 kts | 276° |
| 2026-05-07 23:20 | 28.42940 | -81.31642 | 101 ft | 8 kts | 250° |
| 2026-05-07 23:20 | 28.42895 | -81.31682 | 101 ft | 13 kts | 199° |
| 2026-05-07 23:20 | 28.42788 | -81.31670 | 101 ft | 17 kts | 168° |
| 2026-05-07 23:21 | 28.42725 | -81.31692 | 101 ft | 11 kts | 241° |
| 2026-05-07 23:21 | 28.42704 | -81.31784 | 100 ft | 12 kts | 250° |
| 2026-05-07 23:21 | 28.42645 | -81.31825 | 102 ft | 10 kts | 190° |
| 2026-05-07 23:21 | 28.42572 | -81.31830 | 102 ft | 11 kts | 182° |
| 2026-05-07 23:22 | 28.42487 | -81.31835 | 102 ft | 13 kts | 183° |
| 2026-05-07 23:22 | 28.42393 | -81.31840 | 102 ft | 14 kts | 182° |
| 2026-05-07 23:22 | 28.42304 | -81.31846 | 103 ft | 13 kts | 184° |
| 2026-05-07 23:22 | 28.42267 | -81.31847 | 103 ft | 2 kts | 182° |
| 2026-05-07 23:23 | 28.42264 | -81.31847 | 103 ft | 0 kts | 182° |
| 2026-05-07 23:23 | 28.42263 | -81.31847 | 103 ft | 0 kts | 182° |
| 2026-05-07 23:23 | 28.42227 | -81.31849 | 103 ft | 11 kts | 183° |
| 2026-05-07 23:24 | 28.42151 | -81.31866 | 102 ft | 11 kts | 192° |
| 2026-05-07 23:24 | 28.42079 | -81.31878 | 101 ft | 10 kts | 184° |
| 2026-05-07 23:24 | 28.42009 | -81.31881 | 99 ft | 10 kts | 179° |
| 2026-05-07 23:24 | 28.41903 | -81.31876 | 100 ft | 21 kts | 177° |
| 2026-05-07 23:25 | 28.41786 | -81.31873 | 102 ft | 9 kts | 179° |
| 2026-05-07 23:25 | 28.41729 | -81.31880 | 102 ft | 7 kts | 208° |
| 2026-05-07 23:25 | 28.41697 | -81.31908 | 102 ft | 5 kts | 228° |
| 2026-05-07 23:25 | 28.41679 | -81.31933 | 100 ft | 3 kts | 233° |
| 2026-05-07 23:26 | 28.41664 | -81.31953 | 102 ft | 7 kts | 222° |
| 2026-05-07 23:26 | 28.41571 | -81.31988 | 101 ft | 12 kts | 198° |
| 2026-05-07 23:26 | 28.41543 | -81.32064 | 101 ft | 13 kts | 274° |
| 2026-05-07 23:26 | 28.41544 | -81.32089 | 100 ft | 0 kts | 272° |
| 2026-05-07 23:27 | 28.41544 | -81.32096 | 100 ft | 5 kts | 272° |
| 2026-05-07 23:27 | 28.41577 | -81.32183 | 99 ft | 18 kts | 330° |
| 2026-05-07 23:28 | 28.41637 | -81.32197 | 98 ft | 0 kts | 353° |
| 2026-05-07 23:29 | 28.41734 | -81.32203 | 96 ft | 48 kts | 357° |
| 2026-05-07 23:29 | 28.42295 | -81.32216 | 103 ft | 113 kts | 360° |
| 2026-05-07 23:29 | 28.43277 | -81.32238 | 99 ft | 165 kts | 0° |
| 2026-05-07 23:29 | 28.44555 | -81.32276 | 280 ft | 193 kts | 358° |
| 2026-05-07 23:30 | 28.45781 | -81.32285 | 1250 ft | 169 kts | 356° |
| 2026-05-07 23:30 | 28.46923 | -81.32274 | 1895 ft | 161 kts | 355° |
| 2026-05-07 23:30 | 28.48091 | -81.32291 | 2141 ft | 173 kts | 354° |
| 2026-05-07 23:30 | 28.49282 | -81.32346 | 2379 ft | 179 kts | 353° |
| 2026-05-07 23:31 | 28.50545 | -81.32446 | 2629 ft | 182 kts | 351° |
| 2026-05-07 23:31 | 28.51874 | -81.32592 | 2732 ft | 196 kts | 351° |
| 2026-05-07 23:31 | 28.53247 | -81.32698 | 2997 ft | 204 kts | 354° |
| 2026-05-07 23:31 | 28.54664 | -81.32867 | 3352 ft | 202 kts | 342° |
| 2026-05-07 23:32 | 28.55930 | -81.33566 | 3604 ft | 206 kts | 322° |
| 2026-05-07 23:32 | 28.57117 | -81.34505 | 3918 ft | 210 kts | 323° |
| 2026-05-07 23:32 | 28.58334 | -81.35442 | 4252 ft | 212 kts | 319° |
| 2026-05-07 23:32 | 28.59381 | -81.36634 | 4576 ft | 214 kts | 300° |
| 2026-05-07 23:33 | 28.59810 | -81.38246 | 4690 ft | 225 kts | 268° |
| 2026-05-07 23:33 | 28.59675 | -81.40060 | 4907 ft | 238 kts | 264° |
| 2026-05-07 23:33 | 28.59540 | -81.42000 | 5125 ft | 252 kts | 266° |
| 2026-05-07 23:33 | 28.59447 | -81.44051 | 5478 ft | 261 kts | 267° |
| 2026-05-07 23:34 | 28.59369 | -81.46106 | 5881 ft | 267 kts | 268° |
| 2026-05-07 23:34 | 28.59288 | -81.48136 | 6804 ft | 247 kts | 267° |
| 2026-05-07 23:34 | 28.59092 | -81.50136 | 7077 ft | 260 kts | 258° |
| 2026-05-07 23:34 | 28.58529 | -81.52096 | 7362 ft | 268 kts | 238° |
| 2026-05-07 23:35 | 28.57263 | -81.53651 | 7848 ft | 270 kts | 222° |
| 2026-05-07 23:35 | 28.55799 | -81.55021 | 8240 ft | 274 kts | 222° |
| 2026-05-07 23:35 | 28.54373 | -81.56492 | 8543 ft | 278 kts | 226° |
| 2026-05-07 23:35 | 28.52982 | -81.57971 | 8916 ft | 280 kts | 224° |
| 2026-05-07 23:36 | 28.51505 | -81.59441 | 9343 ft | 281 kts | 223° |
| 2026-05-07 23:36 | 28.50111 | -81.61012 | 9821 ft | 277 kts | 233° |
| 2026-05-07 23:36 | 28.48973 | -81.62706 | 10349 ft | 273 kts | 237° |
| 2026-05-07 23:36 | 28.47912 | -81.64458 | 10891 ft | 268 kts | 238° |
| 2026-05-07 23:37 | 28.46814 | -81.66196 | 11250 ft | 272 kts | 236° |
| 2026-05-07 23:37 | 28.45679 | -81.67888 | 11628 ft | 274 kts | 235° |
| 2026-05-07 23:37 | 28.44473 | -81.69608 | 12022 ft | 277 kts | 233° |
| 2026-05-07 23:37 | 28.43232 | -81.71290 | 12415 ft | 279 kts | 232° |
| 2026-05-07 23:38 | 28.41961 | -81.72967 | 12797 ft | 281 kts | 232° |
| 2026-05-07 23:38 | 28.40676 | -81.74646 | 13205 ft | 283 kts | 232° |
| 2026-05-07 23:38 | 28.39388 | -81.76326 | 13596 ft | 284 kts | 232° |
| 2026-05-07 23:38 | 28.38086 | -81.78026 | 13994 ft | 285 kts | 232° |
| 2026-05-07 23:39 | 28.36801 | -81.79712 | 14359 ft | 286 kts | 232° |
| 2026-05-07 23:39 | 28.35494 | -81.81429 | 14731 ft | 287 kts | 232° |
| 2026-05-07 23:39 | 28.34192 | -81.83141 | 15111 ft | 287 kts | 233° |
| 2026-05-07 23:39 | 28.32882 | -81.84861 | 15489 ft | 288 kts | 233° |
| 2026-05-07 23:40 | 28.31575 | -81.86576 | 15865 ft | 288 kts | 233° |
| 2026-05-07 23:40 | 28.30371 | -81.88421 | 16193 ft | 288 kts | 242° |
| 2026-05-07 23:40 | 28.29461 | -81.90447 | 16470 ft | 290 kts | 251° |
| 2026-05-07 23:40 | 28.28855 | -81.92593 | 16736 ft | 292 kts | 259° |
| 2026-05-07 23:41 | 28.28433 | -81.94861 | 17002 ft | 295 kts | 259° |
| 2026-05-07 23:41 | 28.28002 | -81.97151 | 17297 ft | 299 kts | 259° |
| 2026-05-07 23:41 | 28.27564 | -81.99467 | 17577 ft | 303 kts | 259° |
| 2026-05-07 23:41 | 28.27113 | -82.01832 | 17866 ft | 307 kts | 259° |
| 2026-05-07 23:42 | 28.26660 | -82.04187 | 18141 ft | 310 kts | 259° |
| 2026-05-07 23:42 | 28.26200 | -82.06576 | 18414 ft | 314 kts | 259° |
| 2026-05-07 23:42 | 28.25730 | -82.09029 | 18662 ft | 317 kts | 259° |
| 2026-05-07 23:42 | 28.25260 | -82.11491 | 18911 ft | 320 kts | 259° |
| 2026-05-07 23:43 | 28.24790 | -82.13945 | 19166 ft | 323 kts | 259° |
| 2026-05-07 23:43 | 28.24306 | -82.16457 | 19414 ft | 326 kts | 259° |
| 2026-05-07 23:43 | 28.23826 | -82.18963 | 19661 ft | 329 kts | 259° |
| 2026-05-07 23:43 | 28.23344 | -82.21484 | 19921 ft | 331 kts | 259° |
| 2026-05-07 23:44 | 28.22852 | -82.24051 | 20177 ft | 333 kts | 259° |
| 2026-05-07 23:44 | 28.22361 | -82.26608 | 20439 ft | 335 kts | 259° |
| 2026-05-07 23:44 | 28.21864 | -82.29187 | 20697 ft | 336 kts | 259° |
| 2026-05-07 23:44 | 28.21361 | -82.31787 | 20960 ft | 338 kts | 259° |
| 2026-05-07 23:45 | 28.20852 | -82.34411 | 21228 ft | 339 kts | 259° |
| 2026-05-07 23:45 | 28.20348 | -82.37000 | 21495 ft | 340 kts | 259° |
| 2026-05-07 23:45 | 28.19837 | -82.39629 | 21759 ft | 341 kts | 259° |
| 2026-05-07 23:45 | 28.19331 | -82.42234 | 22022 ft | 342 kts | 259° |
| 2026-05-07 23:46 | 28.18815 | -82.44893 | 22318 ft | 343 kts | 259° |
| 2026-05-07 23:46 | 28.18309 | -82.47507 | 22593 ft | 343 kts | 259° |
| 2026-05-07 23:46 | 28.17798 | -82.50144 | 22869 ft | 344 kts | 259° |
| 2026-05-07 23:46 | 28.17283 | -82.52798 | 23153 ft | 344 kts | 259° |
| 2026-05-07 23:47 | 28.16769 | -82.55443 | 23437 ft | 344 kts | 259° |
| 2026-05-07 23:47 | 28.16257 | -82.58074 | 23704 ft | 343 kts | 259° |
| 2026-05-07 23:47 | 28.15743 | -82.60710 | 23942 ft | 343 kts | 259° |
| 2026-05-07 23:47 | 28.15224 | -82.63361 | 24185 ft | 342 kts | 259° |
| 2026-05-07 23:48 | 28.14713 | -82.65969 | 24428 ft | 342 kts | 259° |
| 2026-05-07 23:48 | 28.14199 | -82.68596 | 24676 ft | 341 kts | 259° |
| 2026-05-07 23:48 | 28.13688 | -82.71217 | 24924 ft | 340 kts | 259° |
| 2026-05-07 23:48 | 28.13175 | -82.73840 | 25177 ft | 339 kts | 259° |
| 2026-05-07 23:49 | 28.12664 | -82.76444 | 25430 ft | 339 kts | 259° |
| 2026-05-07 23:49 | 28.12147 | -82.79060 | 25684 ft | 337 kts | 259° |
| 2026-05-07 23:49 | 28.11643 | -82.81605 | 25933 ft | 336 kts | 259° |
| 2026-05-07 23:49 | 28.11133 | -82.84183 | 26191 ft | 335 kts | 259° |
| 2026-05-07 23:50 | 28.10627 | -82.86743 | 26449 ft | 333 kts | 259° |
| 2026-05-07 23:50 | 28.10123 | -82.89300 | 26712 ft | 331 kts | 259° |
| 2026-05-07 23:50 | 28.09632 | -82.91844 | 26976 ft | 329 kts | 259° |
| 2026-05-07 23:50 | 28.09156 | -82.94382 | 27163 ft | 330 kts | 259° |
| 2026-05-07 23:51 | 28.08686 | -82.96936 | 27317 ft | 332 kts | 260° |
| 2026-05-07 23:51 | 28.08222 | -82.99455 | 27432 ft | 334 kts | 259° |
| 2026-05-07 23:51 | 28.07741 | -83.02041 | 27559 ft | 335 kts | 259° |
| 2026-05-07 23:51 | 28.07255 | -83.04621 | 27675 ft | 337 kts | 259° |
| 2026-05-07 23:52 | 28.06761 | -83.07222 | 27818 ft | 338 kts | 259° |
| 2026-05-07 23:52 | 28.06266 | -83.09817 | 27929 ft | 339 kts | 259° |
| 2026-05-07 23:52 | 28.05768 | -83.12441 | 28047 ft | 340 kts | 259° |
| 2026-05-07 23:52 | 28.05268 | -83.15074 | 28190 ft | 341 kts | 259° |
| 2026-05-07 23:53 | 28.04771 | -83.17690 | 28310 ft | 342 kts | 259° |
| 2026-05-07 23:53 | 28.04272 | -83.20320 | 28431 ft | 342 kts | 259° |
| 2026-05-07 23:53 | 28.03776 | -83.22941 | 28567 ft | 343 kts | 259° |
| 2026-05-07 23:53 | 28.03270 | -83.25612 | 28686 ft | 344 kts | 259° |
| 2026-05-07 23:54 | 28.02776 | -83.28213 | 28824 ft | 344 kts | 259° |
| 2026-05-07 23:54 | 28.02272 | -83.30848 | 28952 ft | 344 kts | 259° |
| 2026-05-07 23:54 | 28.01760 | -83.33514 | 29086 ft | 345 kts | 259° |
| 2026-05-07 23:54 | 28.01256 | -83.36134 | 29215 ft | 345 kts | 259° |
| 2026-05-07 23:55 | 28.00749 | -83.38777 | 29345 ft | 345 kts | 259° |
| 2026-05-07 23:55 | 28.00242 | -83.41446 | 29475 ft | 344 kts | 261° |
| 2026-05-07 23:55 | 27.99955 | -83.44124 | 29611 ft | 343 kts | 266° |
| 2026-05-07 23:55 | 27.99804 | -83.46841 | 29749 ft | 343 kts | 266° |
| 2026-05-07 23:56 | 27.99656 | -83.49498 | 29880 ft | 343 kts | 266° |
| 2026-05-07 23:56 | 27.99502 | -83.52229 | 29984 ft | 343 kts | 266° |
| 2026-05-07 23:56 | 27.99200 | -83.57588 | 30166 ft | 344 kts | 266° |
| 2026-05-07 23:57 | 27.98889 | -83.62988 | 30328 ft | 345 kts | 266° |
| 2026-05-07 23:57 | 27.98569 | -83.68436 | 30507 ft | 346 kts | 266° |
| 2026-05-07 23:58 | 27.98243 | -83.73834 | 30665 ft | 347 kts | 266° |
| 2026-05-07 23:58 | 27.97919 | -83.79242 | 30830 ft | 347 kts | 266° |
| 2026-05-07 23:59 | 27.97594 | -83.84722 | 31003 ft | 348 kts | 266° |
| 2026-05-07 23:59 | 27.97263 | -83.90160 | 31164 ft | 349 kts | 266° |
| 2026-05-08 00:00 | 27.96932 | -83.95658 | 31335 ft | 349 kts | 266° |
| 2026-05-08 00:00 | 27.96602 | -84.01120 | 31501 ft | 350 kts | 266° |
| 2026-05-08 00:01 | 27.96264 | -84.06606 | 31678 ft | 351 kts | 266° |
| 2026-05-08 00:01 | 27.95924 | -84.12103 | 31842 ft | 351 kts | 266° |
| 2026-05-08 00:02 | 27.95583 | -84.17604 | 32019 ft | 352 kts | 266° |
| 2026-05-08 00:02 | 27.95296 | -84.22226 | 32030 ft | 357 kts | 266° |
| 2026-05-08 00:03 | 27.94886 | -84.28813 | 32033 ft | 364 kts | 266° |
| 2026-05-08 00:03 | 27.94526 | -84.34541 | 32036 ft | 370 kts | 266° |
| 2026-05-08 00:04 | 27.94150 | -84.40409 | 32031 ft | 376 kts | 265° |
| 2026-05-08 00:04 | 27.93759 | -84.46402 | 32031 ft | 383 kts | 265° |
| 2026-05-08 00:05 | 27.93372 | -84.52380 | 32031 ft | 390 kts | 265° |
| 2026-05-08 00:05 | 27.92970 | -84.58568 | 32031 ft | 396 kts | 265° |
| 2026-05-08 00:06 | 27.92562 | -84.64818 | 32032 ft | 402 kts | 265° |
| 2026-05-08 00:06 | 27.92143 | -84.71132 | 32028 ft | 407 kts | 265° |
| 2026-05-08 00:07 | 27.91713 | -84.77556 | 32027 ft | 411 kts | 265° |
| 2026-05-08 00:07 | 27.91288 | -84.83853 | 32043 ft | 414 kts | 265° |
| 2026-05-08 00:08 | 27.91142 | -84.85985 | 32304 ft | 408 kts | 265° |
| 2026-05-08 00:08 | 27.90853 | -84.90193 | 32892 ft | 397 kts | 265° |
| 2026-05-08 00:08 | 27.90711 | -84.92235 | 33189 ft | 392 kts | 265° |
| 2026-05-08 00:08 | 27.90505 | -84.95279 | 33640 ft | 383 kts | 266° |
| 2026-05-08 00:09 | 27.90245 | -84.99250 | 33992 ft | 379 kts | 266° |
| 2026-05-08 00:09 | 27.90048 | -85.02244 | 34027 ft | 381 kts | 266° |
| 2026-05-08 00:09 | 27.89641 | -85.08192 | 34027 ft | 386 kts | 265° |
| 2026-05-08 00:10 | 27.89213 | -85.14291 | 34027 ft | 391 kts | 265° |
| 2026-05-08 00:10 | 27.88779 | -85.20430 | 34027 ft | 395 kts | 265° |
| 2026-05-08 00:11 | 27.88807 | -85.26441 | 34028 ft | 397 kts | 279° |
| 2026-05-08 00:11 | 27.90441 | -85.32459 | 34027 ft | 400 kts | 286° |
| 2026-05-08 00:12 | 27.92255 | -85.38415 | 34032 ft | 401 kts | 286° |
| 2026-05-08 00:12 | 27.93995 | -85.44174 | 34034 ft | 400 kts | 286° |
| 2026-05-08 00:13 | 27.95783 | -85.50100 | 34037 ft | 401 kts | 286° |
| 2026-05-08 00:13 | 27.97584 | -85.56081 | 34041 ft | 401 kts | 286° |
| 2026-05-08 00:14 | 27.99072 | -85.61041 | 34044 ft | 401 kts | 286° |
| 2026-05-08 00:14 | 28.01157 | -85.67984 | 34044 ft | 400 kts | 286° |
| 2026-05-08 00:15 | 28.02956 | -85.73959 | 34043 ft | 400 kts | 286° |
| 2026-05-08 00:15 | 28.04738 | -85.79906 | 34039 ft | 400 kts | 286° |
| 2026-05-08 00:16 | 28.06523 | -85.85911 | 34041 ft | 400 kts | 286° |
| 2026-05-08 00:16 | 28.08288 | -85.91838 | 34039 ft | 401 kts | 286° |
| 2026-05-08 00:17 | 28.10074 | -85.97825 | 34037 ft | 401 kts | 285° |
| 2026-05-08 00:17 | 28.11846 | -86.03794 | 34035 ft | 401 kts | 285° |
| 2026-05-08 00:18 | 28.13621 | -86.09773 | 34030 ft | 401 kts | 285° |
| 2026-05-08 00:18 | 28.15389 | -86.15756 | 34027 ft | 401 kts | 285° |
| 2026-05-08 00:19 | 28.17123 | -86.21618 | 34030 ft | 401 kts | 285° |
| 2026-05-08 00:19 | 28.18887 | -86.27592 | 34032 ft | 401 kts | 285° |
| 2026-05-08 00:20 | 28.20656 | -86.33590 | 34030 ft | 402 kts | 285° |
| 2026-05-08 00:20 | 28.22425 | -86.39616 | 34032 ft | 402 kts | 285° |
| 2026-05-08 00:21 | 28.24184 | -86.45586 | 34033 ft | 402 kts | 285° |
| 2026-05-08 00:21 | 28.25941 | -86.51603 | 34035 ft | 402 kts | 285° |
| 2026-05-08 00:22 | 28.27702 | -86.57627 | 34035 ft | 402 kts | 285° |
| 2026-05-08 00:22 | 28.29460 | -86.63637 | 34035 ft | 402 kts | 285° |
| 2026-05-08 00:23 | 28.31212 | -86.69646 | 34036 ft | 402 kts | 285° |
| 2026-05-08 00:23 | 28.32973 | -86.75665 | 34032 ft | 402 kts | 285° |
| 2026-05-08 00:24 | 28.34727 | -86.81660 | 34036 ft | 402 kts | 285° |
| 2026-05-08 00:24 | 28.36494 | -86.87689 | 34033 ft | 402 kts | 285° |
| 2026-05-08 00:25 | 28.38263 | -86.93754 | 34034 ft | 402 kts | 284° |
| 2026-05-08 00:25 | 28.39992 | -86.99718 | 34036 ft | 402 kts | 284° |
| 2026-05-08 00:26 | 28.41735 | -87.05738 | 34036 ft | 402 kts | 284° |
| 2026-05-08 00:26 | 28.43498 | -87.11776 | 34033 ft | 402 kts | 284° |
| 2026-05-08 00:27 | 28.45243 | -87.17767 | 34033 ft | 402 kts | 284° |
| 2026-05-08 00:27 | 28.47003 | -87.23868 | 34031 ft | 402 kts | 284° |
| 2026-05-08 00:28 | 28.48717 | -87.29825 | 34032 ft | 402 kts | 284° |
| 2026-05-08 00:28 | 28.50454 | -87.35877 | 34034 ft | 402 kts | 284° |
| 2026-05-08 00:29 | 28.52195 | -87.41932 | 34036 ft | 402 kts | 284° |
| 2026-05-08 00:29 | 28.53926 | -87.47937 | 34032 ft | 402 kts | 284° |
| 2026-05-08 00:30 | 28.55667 | -87.53986 | 34032 ft | 402 kts | 284° |
| 2026-05-08 00:30 | 28.57389 | -87.60030 | 34031 ft | 402 kts | 284° |
| 2026-05-08 00:31 | 28.59106 | -87.66071 | 34033 ft | 402 kts | 284° |
| 2026-05-08 00:31 | 28.60822 | -87.72103 | 34034 ft | 402 kts | 284° |
| 2026-05-08 00:32 | 28.62546 | -87.78152 | 34033 ft | 402 kts | 284° |
| 2026-05-08 00:32 | 28.64261 | -87.84172 | 34041 ft | 401 kts | 284° |
| 2026-05-08 00:33 | 28.65967 | -87.90214 | 34040 ft | 401 kts | 283° |
| 2026-05-08 00:33 | 28.67668 | -87.96261 | 34036 ft | 401 kts | 283° |
| 2026-05-08 00:34 | 28.69375 | -88.02302 | 34037 ft | 401 kts | 283° |
| 2026-05-08 00:34 | 28.71083 | -88.08361 | 34041 ft | 401 kts | 283° |
| 2026-05-08 00:35 | 28.72773 | -88.14395 | 34036 ft | 401 kts | 283° |
| 2026-05-08 00:35 | 28.74471 | -88.20428 | 34036 ft | 401 kts | 283° |
| 2026-05-08 00:36 | 28.76163 | -88.26476 | 34038 ft | 401 kts | 283° |
| 2026-05-08 00:36 | 28.77848 | -88.32510 | 34035 ft | 401 kts | 283° |
| 2026-05-08 00:37 | 28.79538 | -88.38554 | 34037 ft | 401 kts | 283° |
| 2026-05-08 00:38 | 28.82062 | -88.47630 | 34038 ft | 401 kts | 283° |
| 2026-05-08 00:38 | 28.83737 | -88.53665 | 34037 ft | 401 kts | 283° |
| 2026-05-08 00:39 | 28.85431 | -88.59752 | 34037 ft | 401 kts | 283° |
| 2026-05-08 00:39 | 28.87093 | -88.65773 | 34038 ft | 400 kts | 283° |
| 2026-05-08 00:40 | 28.88729 | -88.71876 | 34038 ft | 399 kts | 281° |
| 2026-05-08 00:40 | 28.90088 | -88.78017 | 34044 ft | 398 kts | 279° |
| 2026-05-08 00:41 | 28.91312 | -88.84099 | 34042 ft | 398 kts | 279° |
| 2026-05-08 00:41 | 28.92579 | -88.90268 | 34042 ft | 398 kts | 279° |
| 2026-05-08 00:42 | 28.93884 | -88.96421 | 34037 ft | 398 kts | 279° |
| 2026-05-08 00:42 | 28.95191 | -89.02529 | 34038 ft | 398 kts | 279° |
| 2026-05-08 00:43 | 28.96487 | -89.08662 | 34039 ft | 398 kts | 279° |
| 2026-05-08 00:43 | 28.97776 | -89.14785 | 34043 ft | 397 kts | 279° |
| 2026-05-08 00:44 | 28.99061 | -89.20913 | 34040 ft | 397 kts | 279° |
| 2026-05-08 00:44 | 29.00350 | -89.27038 | 34041 ft | 397 kts | 279° |
| 2026-05-08 00:45 | 29.01640 | -89.33189 | 34044 ft | 397 kts | 279° |
| 2026-05-08 00:45 | 29.02918 | -89.39333 | 34040 ft | 397 kts | 279° |
| 2026-05-08 00:46 | 29.04188 | -89.45427 | 34041 ft | 397 kts | 279° |
| 2026-05-08 00:46 | 29.05245 | -89.50518 | 34038 ft | 396 kts | 279° |
| 2026-05-08 00:47 | 29.06727 | -89.57680 | 34043 ft | 396 kts | 279° |
| 2026-05-08 00:47 | 29.07999 | -89.63808 | 34040 ft | 396 kts | 279° |
| 2026-05-08 00:48 | 29.09249 | -89.69884 | 34036 ft | 395 kts | 279° |
| 2026-05-08 00:48 | 29.10503 | -89.75991 | 34039 ft | 395 kts | 279° |
| 2026-05-08 00:49 | 29.11766 | -89.82116 | 34042 ft | 395 kts | 279° |
| 2026-05-08 00:49 | 29.13018 | -89.88224 | 34039 ft | 394 kts | 278° |
| 2026-05-08 00:50 | 29.14258 | -89.94315 | 34040 ft | 394 kts | 278° |
| 2026-05-08 00:50 | 29.15500 | -90.00411 | 34043 ft | 394 kts | 278° |
| 2026-05-08 00:51 | 29.16738 | -90.06510 | 34043 ft | 393 kts | 278° |
| 2026-05-08 00:51 | 29.17722 | -90.12648 | 34044 ft | 389 kts | 272° |
| 2026-05-08 00:52 | 29.18249 | -90.18785 | 34044 ft | 389 kts | 272° |
| 2026-05-08 00:52 | 29.18780 | -90.24931 | 34043 ft | 389 kts | 272° |
| 2026-05-08 00:53 | 29.19315 | -90.31088 | 34041 ft | 389 kts | 272° |
| 2026-05-08 00:53 | 29.19848 | -90.37250 | 34039 ft | 389 kts | 272° |
| 2026-05-08 00:54 | 29.20377 | -90.43413 | 34039 ft | 389 kts | 272° |
| 2026-05-08 00:55 | 29.21349 | -90.54880 | 34036 ft | 389 kts | 272° |
| 2026-05-08 00:55 | 29.21870 | -90.61037 | 34037 ft | 389 kts | 272° |
| 2026-05-08 00:56 | 29.22381 | -90.67161 | 34035 ft | 389 kts | 272° |
| 2026-05-08 00:56 | 29.22890 | -90.73338 | 34035 ft | 389 kts | 272° |
| 2026-05-08 00:57 | 29.23398 | -90.79486 | 34035 ft | 388 kts | 272° |
| 2026-05-08 00:57 | 29.23907 | -90.85664 | 34037 ft | 388 kts | 271° |
| 2026-05-08 00:58 | 29.24405 | -90.91773 | 34025 ft | 388 kts | 271° |
| 2026-05-08 00:58 | 29.24905 | -90.97923 | 34036 ft | 388 kts | 271° |
| 2026-05-08 00:59 | 29.25400 | -91.04060 | 34029 ft | 388 kts | 271° |
| 2026-05-08 00:59 | 29.25901 | -91.10251 | 34016 ft | 388 kts | 271° |
| 2026-05-08 01:00 | 29.26388 | -91.16389 | 34034 ft | 389 kts | 271° |
| 2026-05-08 01:00 | 29.26879 | -91.22576 | 34034 ft | 389 kts | 271° |
| 2026-05-08 01:01 | 29.27367 | -91.28743 | 34033 ft | 389 kts | 271° |
| 2026-05-08 01:01 | 29.27849 | -91.34846 | 34033 ft | 389 kts | 271° |
| 2026-05-08 01:02 | 29.28328 | -91.41014 | 34025 ft | 389 kts | 271° |
| 2026-05-08 01:02 | 29.28804 | -91.47203 | 34033 ft | 389 kts | 271° |
| 2026-05-08 01:03 | 29.29276 | -91.53340 | 34022 ft | 389 kts | 271° |
| 2026-05-08 01:03 | 29.29746 | -91.59480 | 34039 ft | 388 kts | 271° |
| 2026-05-08 01:04 | 29.30221 | -91.65651 | 34039 ft | 388 kts | 271° |
| 2026-05-08 01:04 | 29.30686 | -91.71806 | 34042 ft | 388 kts | 271° |
| 2026-05-08 01:05 | 29.31143 | -91.77915 | 34041 ft | 388 kts | 271° |
| 2026-05-08 01:05 | 29.31607 | -91.84103 | 34028 ft | 388 kts | 271° |
| 2026-05-08 01:06 | 29.32065 | -91.90253 | 34036 ft | 388 kts | 271° |
| 2026-05-08 01:06 | 29.32518 | -91.96372 | 34034 ft | 388 kts | 271° |
| 2026-05-08 01:07 | 29.32970 | -92.02520 | 34032 ft | 388 kts | 271° |
| 2026-05-08 01:07 | 29.33421 | -92.08682 | 34028 ft | 388 kts | 271° |
| 2026-05-08 01:08 | 29.33865 | -92.14807 | 34030 ft | 388 kts | 271° |
| 2026-05-08 01:08 | 29.34306 | -92.20986 | 34036 ft | 388 kts | 271° |
| 2026-05-08 01:09 | 29.34748 | -92.27148 | 34027 ft | 388 kts | 271° |
| 2026-05-08 01:09 | 29.35179 | -92.33261 | 34029 ft | 387 kts | 271° |
| 2026-05-08 01:10 | 29.35614 | -92.39420 | 34029 ft | 387 kts | 271° |
| 2026-05-08 01:10 | 29.36045 | -92.45556 | 34027 ft | 387 kts | 271° |
| 2026-05-08 01:11 | 29.36476 | -92.51755 | 34028 ft | 387 kts | 271° |
| 2026-05-08 01:11 | 29.36896 | -92.57833 | 34032 ft | 387 kts | 271° |
| 2026-05-08 01:12 | 29.37315 | -92.64001 | 34034 ft | 387 kts | 271° |
| 2026-05-08 01:12 | 29.37743 | -92.70124 | 34034 ft | 387 kts | 271° |
| 2026-05-08 01:13 | 29.38164 | -92.76261 | 34032 ft | 386 kts | 271° |
| 2026-05-08 01:13 | 29.38571 | -92.82400 | 34035 ft | 386 kts | 271° |
| 2026-05-08 01:14 | 29.38977 | -92.88519 | 34040 ft | 386 kts | 271° |
| 2026-05-08 01:14 | 29.39381 | -92.94636 | 34035 ft | 386 kts | 271° |
| 2026-05-08 01:15 | 29.39780 | -93.00768 | 34043 ft | 386 kts | 271° |
| 2026-05-08 01:15 | 29.40183 | -93.06882 | 34039 ft | 386 kts | 271° |
| 2026-05-08 01:16 | 29.40586 | -93.13037 | 34037 ft | 386 kts | 271° |
| 2026-05-08 01:16 | 29.40978 | -93.19160 | 34036 ft | 386 kts | 271° |
| 2026-05-08 01:17 | 29.41373 | -93.25298 | 34035 ft | 386 kts | 271° |
| 2026-05-08 01:17 | 29.41762 | -93.31412 | 34032 ft | 386 kts | 271° |
| 2026-05-08 01:18 | 29.42150 | -93.37569 | 34029 ft | 387 kts | 271° |
| 2026-05-08 01:18 | 29.42532 | -93.43681 | 34033 ft | 387 kts | 271° |
| 2026-05-08 01:19 | 29.42920 | -93.49861 | 34034 ft | 387 kts | 271° |
| 2026-05-08 01:19 | 29.43302 | -93.55999 | 34036 ft | 387 kts | 271° |
| 2026-05-08 01:20 | 29.43674 | -93.62146 | 34036 ft | 387 kts | 270° |
| 2026-05-08 01:20 | 29.44045 | -93.68324 | 34035 ft | 387 kts | 271° |
| 2026-05-08 01:21 | 29.44415 | -93.74448 | 34033 ft | 386 kts | 271° |
| 2026-05-08 01:21 | 29.44785 | -93.80571 | 34029 ft | 386 kts | 270° |
| 2026-05-08 01:22 | 29.45155 | -93.86724 | 34028 ft | 386 kts | 270° |
| 2026-05-08 01:22 | 29.45522 | -93.92866 | 34030 ft | 386 kts | 270° |
| 2026-05-08 01:23 | 29.45876 | -93.99005 | 34023 ft | 386 kts | 270° |
| 2026-05-08 01:23 | 29.46231 | -94.05135 | 34024 ft | 385 kts | 270° |
| 2026-05-08 01:24 | 29.46585 | -94.11302 | 34026 ft | 385 kts | 270° |
| 2026-05-08 01:24 | 29.46931 | -94.17379 | 34025 ft | 385 kts | 270° |
| 2026-05-08 01:25 | 29.47279 | -94.23471 | 34025 ft | 384 kts | 270° |
| 2026-05-08 01:25 | 29.47621 | -94.29601 | 34025 ft | 384 kts | 270° |
| 2026-05-08 01:26 | 29.47962 | -94.35706 | 34029 ft | 384 kts | 270° |
| 2026-05-08 01:26 | 29.48302 | -94.41795 | 34023 ft | 383 kts | 270° |
| 2026-05-08 01:27 | 29.48632 | -94.47928 | 34028 ft | 383 kts | 270° |
| 2026-05-08 01:27 | 29.48956 | -94.53992 | 34026 ft | 383 kts | 270° |
| 2026-05-08 01:28 | 29.49290 | -94.60092 | 34024 ft | 383 kts | 270° |
| 2026-05-08 01:28 | 29.49567 | -94.65141 | 34025 ft | 382 kts | 270° |
| 2026-05-08 01:29 | 29.49946 | -94.72248 | 34024 ft | 382 kts | 270° |
| 2026-05-08 01:29 | 29.50262 | -94.78295 | 34023 ft | 382 kts | 270° |
| 2026-05-08 01:30 | 29.50578 | -94.84381 | 34024 ft | 381 kts | 270° |
| 2026-05-08 01:30 | 29.50851 | -94.89715 | 34026 ft | 381 kts | 270° |
| 2026-05-08 01:31 | 29.51164 | -94.95770 | 34018 ft | 381 kts | 270° |
| 2026-05-08 01:31 | 29.51477 | -95.01832 | 34017 ft | 381 kts | 270° |
| 2026-05-08 01:32 | 29.51784 | -95.07886 | 34015 ft | 380 kts | 270° |
| 2026-05-08 01:32 | 29.52086 | -95.13906 | 34017 ft | 380 kts | 270° |
| 2026-05-08 01:33 | 29.52382 | -95.19955 | 34033 ft | 380 kts | 269° |
| 2026-05-08 01:33 | 29.52673 | -95.26003 | 34037 ft | 379 kts | 269° |
| 2026-05-08 01:34 | 29.52962 | -95.32068 | 34034 ft | 379 kts | 270° |
| 2026-05-08 01:34 | 29.53260 | -95.38104 | 34045 ft | 379 kts | 269° |
| 2026-05-08 01:35 | 29.53553 | -95.44150 | 34047 ft | 379 kts | 269° |
| 2026-05-08 01:35 | 29.53832 | -95.50140 | 34044 ft | 379 kts | 269° |
| 2026-05-08 01:36 | 29.54108 | -95.56181 | 34037 ft | 378 kts | 269° |
| 2026-05-08 01:36 | 29.54385 | -95.62181 | 34038 ft | 378 kts | 269° |
| 2026-05-08 01:37 | 29.54661 | -95.68216 | 34037 ft | 378 kts | 269° |
| 2026-05-08 01:37 | 29.54928 | -95.74245 | 34033 ft | 378 kts | 269° |
| 2026-05-08 01:38 | 29.55195 | -95.80272 | 34029 ft | 378 kts | 269° |
| 2026-05-08 01:38 | 29.55472 | -95.86279 | 34022 ft | 378 kts | 269° |
| 2026-05-08 01:39 | 29.55747 | -95.92315 | 34001 ft | 378 kts | 269° |
| 2026-05-08 01:39 | 29.56008 | -95.98320 | 34009 ft | 378 kts | 269° |
| 2026-05-08 01:40 | 29.56261 | -96.04388 | 34003 ft | 378 kts | 269° |
| 2026-05-08 01:40 | 29.56512 | -96.10342 | 34006 ft | 377 kts | 269° |
| 2026-05-08 01:41 | 29.56769 | -96.16383 | 34019 ft | 377 kts | 269° |
| 2026-05-08 01:41 | 29.57016 | -96.22203 | 34033 ft | 377 kts | 269° |
| 2026-05-08 01:42 | 29.57261 | -96.28211 | 34034 ft | 377 kts | 268° |
| 2026-05-08 01:42 | 29.57503 | -96.34229 | 34046 ft | 377 kts | 268° |
| 2026-05-08 01:43 | 29.57753 | -96.40252 | 34038 ft | 377 kts | 268° |
| 2026-05-08 01:43 | 29.57988 | -96.46282 | 34027 ft | 377 kts | 268° |
| 2026-05-08 01:44 | 29.58224 | -96.52316 | 34015 ft | 378 kts | 268° |
| 2026-05-08 01:44 | 29.58464 | -96.58306 | 34000 ft | 378 kts | 268° |
| 2026-05-08 01:45 | 29.58696 | -96.64315 | 33984 ft | 378 kts | 268° |
| 2026-05-08 01:45 | 29.58931 | -96.70402 | 33974 ft | 378 kts | 268° |
| 2026-05-08 01:46 | 29.59157 | -96.76376 | 33973 ft | 377 kts | 268° |
| 2026-05-08 01:46 | 29.59376 | -96.82405 | 33982 ft | 377 kts | 268° |
| 2026-05-08 01:47 | 29.59589 | -96.88380 | 33990 ft | 377 kts | 268° |
| 2026-05-08 01:47 | 29.59815 | -96.94434 | 33997 ft | 377 kts | 268° |
| 2026-05-08 01:48 | 29.60134 | -97.03416 | 34003 ft | 377 kts | 268° |
| 2026-05-08 01:48 | 29.60346 | -97.09436 | 34012 ft | 377 kts | 268° |
| 2026-05-08 01:49 | 29.60554 | -97.15394 | 34017 ft | 377 kts | 268° |
| 2026-05-08 01:49 | 29.60759 | -97.21415 | 34023 ft | 377 kts | 268° |
| 2026-05-08 01:50 | 29.60964 | -97.27428 | 34035 ft | 378 kts | 268° |
| 2026-05-08 01:50 | 29.61157 | -97.33470 | 34037 ft | 378 kts | 268° |
| 2026-05-08 01:51 | 29.61353 | -97.39486 | 34037 ft | 378 kts | 268° |
| 2026-05-08 01:51 | 29.61552 | -97.45525 | 34036 ft | 378 kts | 268° |
| 2026-05-08 01:52 | 29.61746 | -97.51550 | 34032 ft | 378 kts | 268° |
| 2026-05-08 01:52 | 29.61940 | -97.57557 | 34016 ft | 378 kts | 267° |
| 2026-05-08 01:53 | 29.62129 | -97.63636 | 34001 ft | 378 kts | 267° |
| 2026-05-08 01:53 | 29.62316 | -97.69634 | 33988 ft | 378 kts | 267° |
| 2026-05-08 01:54 | 29.62501 | -97.75623 | 33975 ft | 378 kts | 267° |
| 2026-05-08 01:54 | 29.62674 | -97.81684 | 33959 ft | 378 kts | 267° |
| 2026-05-08 01:55 | 29.62837 | -97.87688 | 33970 ft | 378 kts | 267° |
| 2026-05-08 01:55 | 29.63007 | -97.93758 | 33966 ft | 379 kts | 267° |
| 2026-05-08 01:56 | 29.63179 | -97.99758 | 34026 ft | 379 kts | 267° |
| 2026-05-08 01:56 | 29.63347 | -98.05604 | 34016 ft | 378 kts | 267° |
| 2026-05-08 01:57 | 29.63516 | -98.11662 | 34005 ft | 379 kts | 267° |
| 2026-05-08 01:57 | 29.63688 | -98.17732 | 34013 ft | 379 kts | 267° |
| 2026-05-08 01:58 | 29.63844 | -98.23801 | 33988 ft | 379 kts | 266° |
| 2026-05-08 01:58 | 29.63999 | -98.29828 | 33987 ft | 379 kts | 266° |
| 2026-05-08 01:59 | 29.64149 | -98.35845 | 33999 ft | 380 kts | 266° |
| 2026-05-08 01:59 | 29.64306 | -98.41930 | 34056 ft | 380 kts | 266° |
| 2026-05-08 02:00 | 29.64998 | -98.47958 | 34054 ft | 391 kts | 281° |
| 2026-05-08 02:00 | 29.66844 | -98.53855 | 34053 ft | 393 kts | 282° |
| 2026-05-08 02:01 | 29.68681 | -98.59740 | 34045 ft | 393 kts | 282° |
| 2026-05-08 02:01 | 29.70536 | -98.65683 | 34039 ft | 393 kts | 282° |
| 2026-05-08 02:02 | 29.72377 | -98.71574 | 34029 ft | 392 kts | 282° |
| 2026-05-08 02:02 | 29.74200 | -98.77438 | 34018 ft | 391 kts | 282° |
| 2026-05-08 02:03 | 29.76044 | -98.83370 | 34027 ft | 391 kts | 282° |
| 2026-05-08 02:03 | 29.77859 | -98.89221 | 34044 ft | 390 kts | 282° |
| 2026-05-08 02:04 | 29.79681 | -98.95098 | 34052 ft | 391 kts | 282° |
| 2026-05-08 02:04 | 29.81508 | -99.00994 | 34058 ft | 391 kts | 282° |
| 2026-05-08 02:05 | 29.83332 | -99.06896 | 34068 ft | 391 kts | 282° |
| 2026-05-08 02:05 | 29.85142 | -99.12759 | 34071 ft | 391 kts | 282° |
| 2026-05-08 02:06 | 29.86963 | -99.18699 | 34069 ft | 392 kts | 281° |
| 2026-05-08 02:06 | 29.88784 | -99.24634 | 34060 ft | 392 kts | 281° |
| 2026-05-08 02:07 | 29.90585 | -99.30504 | 34046 ft | 392 kts | 281° |
| 2026-05-08 02:07 | 29.92402 | -99.36438 | 34041 ft | 392 kts | 281° |
| 2026-05-08 02:08 | 29.94208 | -99.42346 | 34028 ft | 393 kts | 281° |
| 2026-05-08 02:08 | 29.96011 | -99.48269 | 34021 ft | 393 kts | 281° |
| 2026-05-08 02:09 | 29.97819 | -99.54210 | 34020 ft | 393 kts | 281° |
| 2026-05-08 02:09 | 29.99639 | -99.60179 | 34022 ft | 393 kts | 281° |
| 2026-05-08 02:10 | 30.01435 | -99.66119 | 34024 ft | 394 kts | 281° |
| 2026-05-08 02:10 | 30.03241 | -99.72084 | 34029 ft | 394 kts | 281° |
| 2026-05-08 02:11 | 30.05042 | -99.78035 | 34030 ft | 394 kts | 281° |
| 2026-05-08 02:11 | 30.06838 | -99.84004 | 34039 ft | 393 kts | 281° |
| 2026-05-08 02:12 | 30.08630 | -99.89967 | 34037 ft | 393 kts | 281° |
| 2026-05-08 02:12 | 30.10421 | -99.95916 | 34037 ft | 394 kts | 281° |
| 2026-05-08 02:13 | 30.12205 | -100.01880 | 34038 ft | 393 kts | 281° |
| 2026-05-08 02:13 | 30.14004 | -100.07887 | 34041 ft | 394 kts | 281° |
| 2026-05-08 02:14 | 30.15779 | -100.13827 | 34048 ft | 394 kts | 281° |
| 2026-05-08 02:14 | 30.17554 | -100.19790 | 34051 ft | 394 kts | 281° |
| 2026-05-08 02:15 | 30.19332 | -100.25755 | 34056 ft | 393 kts | 281° |
| 2026-05-08 02:15 | 30.21105 | -100.31724 | 34058 ft | 393 kts | 281° |
| 2026-05-08 02:16 | 30.22881 | -100.37711 | 34057 ft | 392 kts | 280° |
| 2026-05-08 02:16 | 30.24644 | -100.43668 | 34043 ft | 392 kts | 280° |
| 2026-05-08 02:17 | 30.26404 | -100.49629 | 34052 ft | 392 kts | 280° |
| 2026-05-08 02:17 | 30.28162 | -100.55591 | 34069 ft | 391 kts | 280° |
| 2026-05-08 02:18 | 30.29890 | -100.61478 | 34083 ft | 390 kts | 280° |
| 2026-05-08 02:18 | 30.31647 | -100.67457 | 34091 ft | 390 kts | 280° |
| 2026-05-08 02:19 | 30.33388 | -100.73384 | 34088 ft | 390 kts | 280° |
| 2026-05-08 02:19 | 30.35121 | -100.79308 | 34087 ft | 390 kts | 280° |
| 2026-05-08 02:20 | 30.36857 | -100.85258 | 34090 ft | 390 kts | 280° |
| 2026-05-08 02:20 | 30.38590 | -100.91190 | 34084 ft | 390 kts | 280° |
| 2026-05-08 02:21 | 30.40315 | -100.97128 | 34076 ft | 389 kts | 280° |
| 2026-05-08 02:21 | 30.42041 | -101.03065 | 34066 ft | 390 kts | 280° |
| 2026-05-08 02:22 | 30.43769 | -101.09011 | 34063 ft | 390 kts | 279° |
| 2026-05-08 02:22 | 30.45485 | -101.14952 | 34068 ft | 390 kts | 279° |
| 2026-05-08 02:23 | 30.47152 | -101.20745 | 34071 ft | 391 kts | 279° |
| 2026-05-08 02:23 | 30.48880 | -101.26731 | 34072 ft | 391 kts | 279° |
| 2026-05-08 02:24 | 30.50610 | -101.32723 | 34071 ft | 391 kts | 279° |
| 2026-05-08 02:24 | 30.52321 | -101.38657 | 34072 ft | 391 kts | 279° |
| 2026-05-08 02:25 | 30.54044 | -101.44664 | 34065 ft | 391 kts | 279° |
| 2026-05-08 02:25 | 30.55739 | -101.50612 | 34062 ft | 391 kts | 279° |
| 2026-05-08 02:26 | 30.57451 | -101.56610 | 34056 ft | 391 kts | 279° |
| 2026-05-08 02:26 | 30.57744 | -101.57640 | 34055 ft | 391 kts | 279° |